Time;durP1;ratioP1;P1;durP2;ratioP2;P2;SDS_P1;SDS_P2;PMS_P1;PMS_P2;Temp;Humidity;BMP_temperature;BMP_pressure;BME280_temperature;BME280_humidity;BME280_pressure;Samples;Min_cycle;Max_cycle;Signal;HPM_P1;HPM_P2
2022/04/15 00:04:14;;;;;;;;;;;16.60;45.50;;;15.31;47.41;101640.50;8302588;28;19927;-85
2022/04/15 00:08:36;;;;;;;;;;;16.60;45.50;;;15.19;47.42;101626.31;8303296;28;19917;-84
2022/04/15 00:12:59;;;;;;;;;;;16.50;45.50;;;15.19;47.18;101623.69;8289478;28;20516;-85
2022/04/15 00:17:21;;;;;;;;;;;16.60;45.50;;;15.18;47.70;101625.47;8292936;28;19925;-85
2022/04/15 00:21:43;;;;;;;;;;;16.60;45.80;;;15.13;47.37;101613.53;8311079;28;19917;-85
2022/04/15 00:26:05;;;;;;;;;;;16.50;45.60;;;15.02;47.51;101593.13;8308902;28;19918;-85
2022/04/15 00:30:26;;;;;;;;;;;16.50;45.50;;;15.13;47.68;101617.00;8307830;28;19917;-85
2022/04/15 00:34:48;;;;;;;;;;;16.40;45.50;;;15.09;47.25;101606.75;8303267;28;19917;-86
2022/04/15 00:39:10;;;;;;;;;;;16.50;45.50;;;15.15;47.39;101630.94;8286247;28;19928;-85
2022/04/15 00:43:35;;;;;;;;;;;16.40;45.50;;;15.01;47.29;101620.34;8286887;28;20360;-86
2022/04/15 00:48:01;;;;;;;;;;;16.40;45.40;;;14.99;47.68;101633.63;8319896;28;20300;-85
2022/04/15 00:52:22;;;;;;;;;;;16.30;45.30;;;14.83;47.46;101604.75;8306512;28;19920;-84
2022/04/15 00:56:46;;;;;;;;;;;16.20;45.40;;;14.91;47.61;101617.44;8284704;28;19921;-84
2022/04/15 01:01:08;;;;;;;;;;;16.20;45.40;;;14.96;47.46;101625.03;8286011;28;20512;-84
2022/04/15 01:05:30;;;;;;;;;;;16.30;45.40;;;14.91;47.38;101625.34;8297689;28;20012;-84
2022/04/15 01:09:52;;;;;;;;;;;16.20;45.40;;;14.89;47.79;101624.56;8288388;28;20004;-84
2022/04/15 01:14:15;;;;;;;;;;;16.30;45.50;;;14.83;47.51;101614.41;8301895;28;20012;-85
2022/04/15 01:18:38;;;;;;;;;;;16.10;45.40;;;14.82;47.93;101612.72;8284006;28;19927;-84
2022/04/15 01:23:07;;;;;;;;;;;16.10;45.40;;;14.82;47.33;101621.47;8267906;28;20438;-84
2022/04/15 01:27:33;;;;;;;;;;;16.20;45.50;;;14.77;47.79;101617.38;8306617;28;19923;-84
2022/04/15 01:31:55;;;;;;;;;;;16.20;45.60;;;14.70;47.83;101618.69;8280582;28;20457;-84
2022/04/15 01:36:17;;;;;;;;;;;16.10;45.60;;;14.69;47.77;101622.25;8310457;28;20327;-84
2022/04/15 01:40:39;;;;;;;;;;;16.10;45.50;;;14.66;47.48;101625.91;8310739;28;19917;-84
2022/04/15 01:45:00;;;;;;;;;;;16.00;45.60;;;14.59;47.90;101625.41;8320609;28;20008;-84
2022/04/15 01:49:22;;;;;;;;;;;16.00;45.60;;;14.58;47.93;101620.25;8305869;28;20472;-85
2022/04/15 01:53:44;;;;;;;;;;;16.00;45.70;;;14.62;47.85;101636.69;8281440;28;20020;-85
2022/04/15 01:58:06;;;;;;;;;;;16.00;45.80;;;14.42;47.96;101617.63;8310778;28;20396;-84
2022/04/15 02:02:28;;;;;;;;;;;15.90;45.70;;;14.36;47.91;101615.34;8306782;28;20458;-84
2022/04/15 02:06:49;;;;;;;;;;;15.80;45.80;;;14.30;47.83;101627.03;8310160;28;20008;-84
2022/04/15 02:11:11;;;;;;;;;;;15.70;45.80;;;14.21;48.07;101637.25;8325259;28;20537;-85
2022/04/15 02:15:33;;;;;;;;;;;15.70;45.90;;;14.13;48.00;101641.13;8314673;28;20016;-85
2022/04/15 02:19:55;;;;;;;;;;;15.60;45.60;;;14.05;47.89;101645.97;8313840;28;20012;-85
2022/04/15 02:24:17;;;;;;;;;;;15.40;45.60;;;13.83;48.02;101633.16;8282538;28;20008;-84
2022/04/15 02:28:39;;;;;;;;;;;15.40;45.60;;;13.65;48.06;101627.13;8294383;28;20000;-85
2022/04/15 02:33:01;;;;;;;;;;;15.20;45.70;;;13.64;47.99;101640.34;8311442;28;20023;-85
2022/04/15 02:37:23;;;;;;;;;;;15.10;45.90;;;13.55;47.95;101667.06;8292814;28;19925;-85
2022/04/15 02:41:44;;;;;;;;;;;15.00;45.80;;;13.35;48.05;101653.19;8312315;28;20004;-85
2022/04/15 02:46:09;;;;;;;;;;;14.80;45.70;;;13.13;48.16;101648.19;8289122;28;19924;-85
2022/04/15 02:50:31;;;;;;;;;;;14.80;45.60;;;13.11;48.53;101663.13;8317957;28;20019;-85
2022/04/15 02:54:53;;;;;;;;;;;14.60;45.90;;;13.03;48.22;101668.78;8316236;28;20612;-85
2022/04/15 02:59:16;;;;;;;;;;;14.50;45.60;;;12.96;48.24;101680.50;8306070;28;20298;-85
2022/04/15 03:03:38;;;;;;;;;;;14.40;45.50;;;12.83;48.24;101680.25;8316271;28;19996;-85
2022/04/15 03:08:00;;;;;;;;;;;14.30;45.70;;;12.77;48.18;101680.56;8323536;28;20000;-86
2022/04/15 03:12:21;;;;;;;;;;;14.20;45.60;;;12.63;48.13;101660.25;8300699;28;20000;-85
2022/04/15 03:16:44;;;;;;;;;;;14.10;45.50;;;12.58;47.99;101664.03;8314046;28;19928;-85
2022/04/15 03:21:05;;;;;;;;;;;14.10;45.40;;;12.60;48.21;101680.53;8307204;28;20447;-85
2022/04/15 03:25:27;;;;;;;;;;;14.00;45.30;;;12.45;48.46;101655.94;8314307;28;20398;-86
2022/04/15 03:29:49;;;;;;;;;;;13.90;45.40;;;12.57;48.32;101681.53;8308152;28;20088;-85
2022/04/15 03:34:10;;;;;;;;;;;14.00;45.50;;;12.48;48.46;101675.91;8305461;28;20004;-85
2022/04/15 03:38:32;;;;;;;;;;;13.80;45.60;;;12.42;48.01;101681.41;8312121;28;19925;-85
2022/04/15 03:42:55;;;;;;;;;;;13.90;45.50;;;12.45;48.03;101692.59;8327554;28;20020;-84
2022/04/15 03:47:16;;;;;;;;;;;13.80;45.50;;;12.31;48.16;101680.16;8296483;28;20345;-85
2022/04/15 03:51:38;;;;;;;;;;;13.80;45.90;;;12.22;48.07;101683.19;8294318;28;20449;-85
2022/04/15 03:56:00;;;;;;;;;;;13.70;45.90;;;12.21;48.18;101685.91;8292052;28;20027;-85
2022/04/15 04:00:23;;;;;;;;;;;13.50;45.80;;;12.15;48.36;101684.38;8296929;28;20004;-87
2022/04/15 04:04:45;;;;;;;;;;;13.70;46.00;;;12.17;48.53;101698.28;8315173;28;20004;-85
2022/04/15 04:09:07;;;;;;;;;;;13.60;45.90;;;12.05;48.47;101675.28;8328864;28;19927;-85
2022/04/15 04:13:29;;;;;;;;;;;13.60;46.00;;;12.20;48.35;101713.00;8303641;28;19936;-85
2022/04/15 04:17:51;;;;;;;;;;;13.50;46.00;;;12.13;48.51;101707.19;8305562;28;19921;-85
2022/04/15 04:22:13;;;;;;;;;;;13.50;45.80;;;12.11;48.70;101703.78;8305450;28;20000;-86
2022/04/15 04:26:34;;;;;;;;;;;13.50;45.90;;;12.11;48.55;101725.59;8287665;28;19996;-85
2022/04/15 04:30:56;;;;;;;;;;;13.50;46.00;;;12.06;48.89;101719.72;8310375;28;20008;-86
2022/04/15 04:35:19;;;;;;;;;;;13.30;45.80;;;12.04;48.59;101723.31;8294363;28;20450;-86
2022/04/15 04:39:41;;;;;;;;;;;13.50;46.00;;;12.00;48.31;101725.22;8285748;28;19921;-85
2022/04/15 04:44:04;;;;;;;;;;;13.40;46.20;;;11.96;48.84;101718.41;8292600;28;20011;-85
2022/04/15 04:48:26;;;;;;;;;;;13.50;46.20;;;11.98;48.94;101742.75;8310379;28;20012;-85
2022/04/15 04:52:48;;;;;;;;;;;13.40;46.10;;;11.95;48.88;101738.50;8306478;28;20428;-86
2022/04/15 04:57:10;;;;;;;;;;;13.40;46.20;;;11.99;48.59;101735.75;8278994;28;19921;-85
2022/04/15 05:01:32;;;;;;;;;;;13.30;46.20;;;12.05;48.86;101756.44;8282096;28;19995;-85
2022/04/15 05:05:53;;;;;;;;;;;13.40;46.40;;;11.99;48.61;101744.47;8297006;28;21295;-85
2022/04/15 05:10:15;;;;;;;;;;;13.50;46.20;;;11.97;49.00;101745.47;8307665;28;20433;-84
2022/04/15 05:14:37;;;;;;;;;;;13.50;46.50;;;12.05;49.17;101759.06;8314949;28;20473;-84
2022/04/15 05:18:59;;;;;;;;;;;13.50;46.20;;;11.99;48.59;101754.06;8328996;28;19921;-84
2022/04/15 05:23:21;;;;;;;;;;;13.50;46.30;;;11.97;48.89;101762.03;8317123;28;19923;-84
2022/04/15 05:27:42;;;;;;;;;;;13.40;46.10;;;11.97;48.99;101761.19;8312193;28;20024;-84
2022/04/15 05:32:04;;;;;;;;;;;13.50;46.00;;;11.95;48.89;101761.22;8306553;28;20403;-84
2022/04/15 05:36:26;;;;;;;;;;;13.50;46.10;;;11.94;48.93;101765.63;8289737;28;19928;-84
2022/04/15 05:40:47;;;;;;;;;;;13.40;46.50;;;11.96;48.97;101783.84;8319658;28;20008;-84
2022/04/15 05:45:09;;;;;;;;;;;13.40;46.30;;;11.87;48.96;101758.94;8308442;28;20008;-85
2022/04/15 05:49:34;;;;;;;;;;;13.40;46.50;;;11.99;48.68;101782.88;8307397;28;19917;-84
2022/04/15 05:53:56;;;;;;;;;;;13.30;46.40;;;11.93;48.83;101778.75;8310142;28;20356;-83
2022/04/15 05:58:17;;;;;;;;;;;13.40;46.40;;;11.81;49.38;101766.19;8295324;28;19921;-86
2022/04/15 06:02:39;;;;;;;;;;;13.40;46.30;;;11.92;48.91;101791.00;8314222;28;20348;-88
2022/04/15 06:07:01;;;;;;;;;;;13.40;46.20;;;11.81;48.96;101764.44;8282713;28;19917;-86
2022/04/15 06:11:23;;;;;;;;;;;13.40;46.50;;;11.91;49.15;101781.47;8294132;28;20016;-85
2022/04/15 06:15:52;;;;;;;;;;;13.50;46.50;;;11.91;49.11;101788.47;8307618;28;20389;-87
2022/04/15 06:20:15;;;;;;;;;;;13.50;46.40;;;11.92;49.05;101793.63;8289280;28;19921;-85
2022/04/15 06:24:36;;;;;;;;;;;13.50;46.60;;;11.88;49.06;101781.59;8298361;28;19996;-83
2022/04/15 06:28:58;;;;;;;;;;;13.50;46.50;;;12.03;49.09;101814.09;8323356;28;20012;-86
2022/04/15 06:33:20;;;;;;;;;;;13.50;46.80;;;12.07;48.88;101812.19;8305603;28;19924;-88
2022/04/15 06:37:42;;;;;;;;;;;13.50;46.70;;;12.09;49.08;101815.59;8290444;28;19927;-85
2022/04/15 06:42:04;;;;;;;;;;;13.60;46.60;;;11.87;49.41;101774.66;8287877;28;19917;-88
2022/04/15 06:46:26;;;;;;;;;;;13.60;47.80;;;11.97;49.37;101793.44;8291773;28;20003;-86
2022/04/15 06:50:48;;;;;;;;;;;13.60;47.10;;;12.08;49.25;101808.66;8299462;28;19925;-86
2022/04/15 06:55:10;;;;;;;;;;;13.60;46.70;;;12.16;49.50;101817.88;8264259;28;20339;-87
2022/04/15 06:59:31;;;;;;;;;;;13.60;46.70;;;12.14;49.15;101817.09;8285772;28;19922;-85
2022/04/15 07:03:53;;;;;;;;;;;13.50;46.80;;;12.10;49.32;101807.69;8298597;28;20525;-85
2022/04/15 07:08:14;;;;;;;;;;;13.70;46.80;;;12.16;49.47;101819.66;8288940;28;20346;-89
2022/04/15 07:12:37;;;;;;;;;;;13.70;46.90;;;12.09;49.64;101815.59;8287228;28;20020;-89
2022/04/15 07:17:00;;;;;;;;;;;13.70;46.60;;;12.08;49.04;101808.66;8278357;28;20339;-86
2022/04/15 07:21:22;;;;;;;;;;;13.80;46.60;;;12.25;49.38;101832.31;8307897;28;20012;-84
2022/04/15 07:25:44;;;;;;;;;;;13.70;46.40;;;12.26;49.27;101834.03;8281391;28;20011;-88
2022/04/15 07:30:06;;;;;;;;;;;13.70;46.50;;;12.24;49.58;101838.50;8291119;28;20007;-89
2022/04/15 07:34:29;;;;;;;;;;;13.80;46.50;;;12.09;49.11;101813.81;8318245;28;20007;-88
2022/04/15 07:38:54;;;;;;;;;;;13.80;47.20;;;12.16;49.34;101832.75;8298603;28;19921;-87
2022/04/15 07:43:15;;;;;;;;;;;13.70;46.60;;;12.18;49.72;101834.38;8295764;28;20000;-91
2022/04/15 07:47:37;;;;;;;;;;;13.80;46.70;;;12.23;49.39;101841.16;8294899;28;20365;-90
2022/04/15 07:51:59;;;;;;;;;;;13.80;46.80;;;12.14;49.67;101834.56;8277444;28;20349;-87
2022/04/15 07:56:21;;;;;;;;;;;13.70;46.80;;;12.18;49.59;101846.63;8304723;28;19917;-81
2022/04/15 08:00:43;;;;;;;;;;;13.80;46.60;;;12.21;49.41;101854.34;8312826;28;19928;-81
2022/04/15 08:05:05;;;;;;;;;;;13.80;46.70;;;12.09;49.51;101837.38;8320340;28;19918;-80
2022/04/15 08:09:27;;;;;;;;;;;13.80;46.70;;;12.19;49.56;101853.56;8329282;28;19917;-86
2022/04/15 08:13:49;;;;;;;;;;;13.80;46.40;;;12.05;49.68;101841.06;8297335;28;19924;-88
2022/04/15 08:18:12;;;;;;;;;;;13.80;47.00;;;12.13;49.23;101857.28;8286725;28;19927;-88
2022/04/15 08:22:35;;;;;;;;;;;13.70;47.50;;;12.14;49.53;101863.38;8310410;28;20624;-90
2022/04/15 08:26:57;;;;;;;;;;;13.70;46.70;;;12.19;49.25;101874.50;8307045;28;20039;-91
2022/04/15 08:31:19;;;;;;;;;;;13.70;47.00;;;12.13;49.81;101867.78;8324636;28;20015;-91
2022/04/15 08:35:41;;;;;;;;;;;13.70;47.20;;;12.23;49.37;101880.44;8322535;28;20011;-91
2022/04/15 08:40:03;;;;;;;;;;;13.70;47.40;;;12.18;49.25;101878.91;8300283;28;19936;-88
2022/04/15 08:44:29;;;;;;;;;;;13.70;47.00;;;12.24;49.52;101887.41;8308136;28;20004;-88
2022/04/15 08:48:52;;;;;;;;;;;13.70;47.00;;;12.18;49.69;101875.44;8305855;28;20461;-91
2022/04/15 08:53:22;;;;;;;;;;;13.70;46.80;;;12.15;49.54;101875.53;8305756;28;21363;-90
2022/04/15 08:57:43;;;;;;;;;;;13.80;46.90;;;12.20;49.25;101885.81;8292947;28;19928;-88
2022/04/15 09:02:05;;;;;;;;;;;13.80;47.40;;;12.17;49.71;101887.66;8315712;28;20043;-89
2022/04/15 09:06:33;;;;;;;;;;;13.70;47.00;;;12.04;49.54;101870.75;8290013;28;19917;-86
2022/04/15 09:10:59;;;;;;;;;;;13.80;47.00;;;12.17;49.88;101897.28;8295820;28;20359;-86
2022/04/15 09:15:21;;;;;;;;;;;13.80;47.00;;;12.16;49.62;101909.53;8299531;28;19916;-86
2022/04/15 09:19:43;;;;;;;;;;;13.70;47.10;;;12.23;49.49;101919.72;8283975;28;19921;-87
2022/04/15 09:24:05;;;;;;;;;;;13.80;47.00;;;12.20;49.56;101927.72;8300388;28;20008;-88
2022/04/15 09:28:28;;;;;;;;;;;13.80;46.90;;;12.12;49.35;101904.47;8290867;28;20442;-86
2022/04/15 09:32:49;;;;;;;;;;;13.80;47.30;;;12.16;49.79;101920.00;8280674;28;20020;-85
2022/04/15 09:37:11;;;;;;;;;;;13.70;47.50;;;12.19;49.70;101932.13;8287975;28;20404;-87
2022/04/15 09:41:33;;;;;;;;;;;13.70;47.20;;;12.06;49.74;101915.22;8292223;28;20406;-89
2022/04/15 09:45:54;;;;;;;;;;;13.50;46.80;;;12.21;49.56;101942.53;8290133;28;20404;-88
2022/04/15 09:50:49;;;;;;;;;;;13.80;47.20;;;12.19;49.36;101934.72;8294175;28;20039;-88
2022/04/15 09:55:12;;;;;;;;;;;13.70;47.60;;;12.14;49.95;101940.16;8285756;28;19921;-92
2022/04/15 09:59:34;;;;;;;;;;;13.70;47.10;;;12.13;49.63;101937.63;8282829;28;19941;-89
2022/04/15 10:03:56;;;;;;;;;;;13.40;47.20;;;12.11;49.78;101936.81;8297087;28;20000;-87
2022/04/15 10:08:21;;;;;;;;;;;13.60;47.30;;;12.19;49.97;101947.81;8303193;28;20008;-85
2022/04/15 10:12:43;;;;;;;;;;;13.70;47.30;;;12.21;49.87;101955.63;8301582;28;19995;-84
2022/04/15 10:17:06;;;;;;;;;;;13.60;47.70;;;12.16;49.71;101953.19;8303213;28;20004;-84
2022/04/15 10:21:33;;;;;;;;;;;13.60;47.30;;;12.18;50.14;101952.22;8312844;28;20016;-86
2022/04/15 10:25:55;;;;;;;;;;;13.70;47.60;;;12.09;49.76;101942.13;8306680;28;19924;-83
2022/04/15 10:30:21;;;;;;;;;;;13.70;47.80;;;12.09;49.87;101947.34;8291294;28;20020;-85
2022/04/15 10:34:46;;;;;;;;;;;13.60;47.90;;;11.95;50.19;101923.53;8281130;28;20461;-86
2022/04/15 10:39:08;;;;;;;;;;;13.50;47.60;;;12.13;50.21;101956.81;8289485;28;19998;-87
2022/04/15 10:43:30;;;;;;;;;;;13.60;47.90;;;12.11;50.14;101950.78;8307908;28;20008;-86
2022/04/15 10:47:59;;;;;;;;;;;13.60;48.70;;;11.97;49.99;101932.19;8301389;28;20004;-86
2022/04/15 10:52:24;;;;;;;;;;;13.60;47.90;;;12.02;50.05;101945.94;8311593;28;20016;-84
2022/04/15 10:57:10;;;;;;;;;;;13.60;48.20;;;12.06;49.99;101959.72;8302504;28;20011;-86
2022/04/15 11:01:32;;;;;;;;;;;13.60;48.30;;;11.99;50.34;101946.06;8308855;28;19927;-86
2022/04/15 11:05:58;;;;;;;;;;;13.50;48.10;;;11.97;50.22;101936.56;8330419;28;20011;-86
2022/04/15 11:10:43;;;;;;;;;;;13.50;47.90;;;12.04;50.19;101958.94;8330158;28;20484;-85
2022/04/15 11:15:05;;;;;;;;;;;13.50;48.10;;;12.04;50.47;101951.94;8312520;28;19917;-85
2022/04/15 11:19:27;;;;;;;;;;;13.60;49.70;;;12.07;50.51;101958.81;8288818;28;19925;-85
2022/04/15 11:23:53;;;;;;;;;;;13.50;48.60;;;12.05;50.28;101960.66;8305207;28;20370;-85
2022/04/15 11:28:17;;;;;;;;;;;13.60;48.90;;;12.10;50.51;101967.41;8290962;28;20396;-85
2022/04/15 11:32:51;;;;;;;;;;;13.60;48.70;;;12.16;50.26;101975.00;8301311;28;19927;-84
2022/04/15 11:37:13;;;;;;;;;;;13.60;48.60;;;12.18;50.27;101981.03;8319337;28;19996;-85
2022/04/15 11:41:35;;;;;;;;;;;13.60;48.50;;;12.20;50.28;101974.88;8324201;28;20015;-85
2022/04/15 11:45:57;;;;;;;;;;;13.60;49.20;;;12.24;50.54;101966.81;8305095;28;19923;-85
2022/04/15 11:50:19;;;;;;;;;;;13.80;48.90;;;12.33;50.65;101979.50;8311129;28;20584;-86
2022/04/15 11:54:40;;;;;;;;;;;13.80;49.40;;;12.32;50.42;101969.13;8315507;28;19921;-86
2022/04/15 11:59:08;;;;;;;;;;;13.90;49.30;;;12.48;50.70;101988.50;8319132;28;19928;-86
2022/04/15 12:03:30;;;;;;;;;;;13.90;49.10;;;12.50;50.65;101994.53;8291254;28;19993;-85
2022/04/15 12:07:52;;;;;;;;;;;13.80;49.30;;;12.45;50.50;101993.00;8278852;28;20011;-86
2022/04/15 12:12:14;;;;;;;;;;;14.00;49.50;;;12.38;50.58;101980.19;8294426;28;19928;-86
2022/04/15 12:16:39;;;;;;;;;;;14.00;49.90;;;12.40;50.73;101983.59;8275143;28;20517;-86
2022/04/15 12:21:00;;;;;;;;;;;13.90;49.80;;;12.43;50.87;101992.25;8287993;28;19928;-85
2022/04/15 12:25:23;;;;;;;;;;;13.90;50.90;;;12.51;50.82;102011.09;8291518;28;20000;-85
2022/04/15 12:29:48;;;;;;;;;;;14.00;49.80;;;12.46;50.74;101992.94;8292731;28;20004;-86
2022/04/15 12:34:11;;;;;;;;;;;14.00;49.70;;;12.40;50.92;101973.09;8293325;28;19923;-86
2022/04/15 12:38:59;;;;;;;;;;;14.00;50.40;;;12.61;50.78;102015.88;8288193;28;19928;-86
2022/04/15 12:43:21;;;;;;;;;;;14.10;50.00;;;12.66;51.08;102026.16;8319220;28;19993;-87
2022/04/15 12:47:56;;;;;;;;;;;14.10;49.80;;;12.58;50.95;102009.91;8317912;28;20007;-86
2022/04/15 12:52:19;;;;;;;;;;;14.10;50.10;;;12.55;51.10;102007.41;8296895;28;20163;-86
2022/04/15 12:56:57;;;;;;;;;;;14.20;50.70;;;12.59;51.08;102027.34;8307720;28;20024;-86
2022/04/15 13:01:21;;;;;;;;;;;14.20;49.70;;;12.69;50.83;102033.91;8294025;28;20020;-86
2022/04/15 13:05:47;;;;;;;;;;;14.10;49.50;;;12.58;50.73;102010.78;8308169;28;20012;-85
2022/04/15 13:10:11;;;;;;;;;;;14.20;50.00;;;12.63;50.87;102010.56;8299499;28;20457;-85
2022/04/15 13:14:32;;;;;;;;;;;14.20;50.30;;;12.72;51.20;102025.03;8288979;28;20008;-85
2022/04/15 13:18:54;;;;;;;;;;;14.20;49.60;;;12.62;50.90;101996.63;8293321;28;19921;-85
2022/04/15 13:23:17;;;;;;;;;;;14.10;49.50;;;12.70;50.89;102005.94;8302273;28;20008;-85
2022/04/15 13:27:38;;;;;;;;;;;14.30;49.40;;;12.87;50.80;102040.09;8304364;28;20000;-86
2022/04/15 13:32:02;;;;;;;;;;;14.30;49.50;;;12.65;51.02;101994.78;8310209;28;19923;-87
2022/04/15 13:36:24;;;;;;;;;;;14.30;49.10;;;12.78;50.92;102023.00;8317022;28;19996;-86
2022/04/15 13:40:49;;;;;;;;;;;14.30;49.40;;;12.90;51.12;102036.50;8317538;28;19921;-87
2022/04/15 13:45:10;;;;;;;;;;;14.30;49.40;;;12.95;50.93;102042.41;8284920;28;19923;-85
2022/04/15 13:49:35;;;;;;;;;;;14.40;49.50;;;12.78;51.18;102014.31;8297958;28;19917;-86
2022/04/15 13:58:38;;;;;;;;;;;14.50;49.70;;;12.98;51.09;102056.22;8300771;28;19928;-86
2022/04/15 14:03:00;;;;;;;;;;;14.50;49.40;;;12.94;51.00;102052.03;8282041;28;19918;-86
2022/04/15 14:07:22;;;;;;;;;;;14.50;49.80;;;12.97;51.00;102064.16;8300276;28;19921;-84
2022/04/15 14:11:45;;;;;;;;;;;14.50;50.00;;;12.72;51.16;102036.41;8302562;28;20004;-86
2022/04/15 14:16:07;;;;;;;;;;;14.60;50.30;;;12.80;50.95;102075.38;8314287;28;20004;-82
2022/04/15 14:20:29;;;;;;;;;;;14.50;52.20;;;12.64;51.03;102067.31;8297824;28;19921;-86
2022/04/15 14:24:51;;;;;;;;;;;14.40;52.00;;;12.67;51.10;102098.63;8300775;28;20000;-86
2022/04/15 14:29:13;;;;;;;;;;;14.30;51.70;;;12.60;51.18;102102.41;8303457;28;20011;-85
2022/04/15 14:33:36;;;;;;;;;;;14.30;51.10;;;12.47;51.53;102088.13;8306557;28;20044;-85
2022/04/15 14:37:58;;;;;;;;;;;14.20;51.30;;;12.60;51.21;102105.03;8320586;28;19921;-86
2022/04/15 14:42:20;;;;;;;;;;;14.10;50.80;;;12.44;51.19;102096.09;8296240;28;19928;-86
2022/04/15 14:46:42;;;;;;;;;;;14.10;51.50;;;12.38;51.38;102111.16;8304422;28;20024;-86
2022/04/15 14:51:03;;;;;;;;;;;14.00;51.90;;;12.30;51.55;102115.00;8316488;28;19927;-86
2022/04/15 14:55:25;;;;;;;;;;;13.90;51.70;;;12.24;51.50;102116.09;8291376;28;19923;-87
2022/04/15 14:59:47;;;;;;;;;;;13.90;51.10;;;12.24;51.33;102141.44;8298720;28;19921;-86
2022/04/15 15:04:09;;;;;;;;;;;13.90;50.10;;;12.12;51.57;102137.53;8295684;28;20008;-86
2022/04/15 15:08:30;;;;;;;;;;;13.80;51.00;;;12.16;51.65;102175.78;8301959;28;20012;-86
2022/04/15 15:12:52;;;;;;;;;;;13.70;51.00;;;12.00;51.05;102167.66;8298174;28;20008;-87
2022/04/15 15:17:16;;;;;;;;;;;13.60;51.10;;;11.69;51.80;102153.09;8293345;28;20434;-85
2022/04/15 15:21:38;;;;;;;;;;;13.70;51.40;;;11.80;51.70;102191.94;8297102;28;20011;-86
2022/04/15 15:30:45;;;;;;;;;;;13.30;51.50;;;11.46;51.77;102177.44;8302273;28;20021;-87
2022/04/15 15:35:08;;;;;;;;;;;13.10;51.40;;;11.47;51.70;102194.00;8295451;28;19917;-85
2022/04/15 15:39:29;;;;;;;;;;;13.00;50.40;;;11.48;51.94;102220.13;8320407;28;19994;-85
2022/04/15 15:43:51;;;;;;;;;;;13.00;50.90;;;11.32;52.00;102199.78;8288475;28;20004;-86
2022/04/15 15:48:13;;;;;;;;;;;12.90;51.50;;;11.36;51.87;102222.28;8312651;28;19918;-87
2022/04/15 15:52:36;;;;;;;;;;;12.90;50.60;;;11.19;51.62;102204.56;8278850;28;20288;-86
2022/04/15 15:56:59;;;;;;;;;;;12.90;50.50;;;11.28;51.58;102219.94;8291152;28;20397;-86
2022/04/15 16:01:21;;;;;;;;;;;12.80;50.00;;;11.22;51.74;102241.91;8277765;28;19936;-86
2022/04/15 16:05:42;;;;;;;;;;;12.80;51.20;;;11.06;51.73;102223.28;8296934;28;19923;-86
2022/04/15 16:10:05;;;;;;;;;;;12.70;51.30;;;10.98;51.87;102248.81;8272417;28;19921;-85
2022/04/15 16:14:27;;;;;;;;;;;12.60;50.80;;;10.95;51.86;102259.38;8294426;28;20015;-86
2022/04/15 16:18:48;;;;;;;;;;;12.60;50.90;;;10.92;52.22;102261.22;8299780;28;19921;-86
2022/04/15 16:23:12;;;;;;;;;;;12.50;50.30;;;10.78;51.99;102256.44;8305286;28;20011;-86
2022/04/15 16:27:35;;;;;;;;;;;12.40;51.50;;;10.68;51.79;102249.78;8306137;28;20015;-86
2022/04/15 16:31:57;;;;;;;;;;;12.40;50.90;;;10.66;52.00;102254.19;8306850;28;20020;-86
2022/04/15 16:36:18;;;;;;;;;;;12.40;51.10;;;10.58;52.18;102264.88;8292200;28;20011;-86
2022/04/15 16:40:40;;;;;;;;;;;12.30;51.20;;;10.65;52.24;102292.53;8306723;28;19922;-86
2022/04/15 16:45:02;;;;;;;;;;;12.20;52.00;;;10.55;52.31;102291.94;8278362;28;20429;-87
2022/04/15 16:49:24;;;;;;;;;;;12.20;51.80;;;10.55;52.12;102298.94;8286082;28;20342;-86
2022/04/15 16:53:46;;;;;;;;;;;12.10;51.00;;;10.51;52.00;102311.25;8288397;28;19924;-86
2022/04/15 17:02:48;;;;;;;;;;;12.00;51.30;;;10.16;52.00;102283.50;8299970;28;20395;-86
2022/04/15 17:07:09;;;;;;;;;;;12.00;52.20;;;10.33;52.35;102317.00;8308217;28;20274;-88
2022/04/15 17:11:33;;;;;;;;;;;11.90;51.40;;;10.26;52.30;102307.56;8299709;28;20428;-86
2022/04/15 17:15:56;;;;;;;;;;;11.90;51.70;;;10.29;51.88;102324.06;8289542;28;20015;-86
2022/04/15 17:20:18;;;;;;;;;;;11.90;51.00;;;10.32;52.42;102339.63;8304219;28;19943;-87
2022/04/15 17:24:43;;;;;;;;;;;11.90;51.80;;;10.32;52.65;102338.78;8294043;28;19927;-87
2022/04/15 17:29:05;;;;;;;;;;;12.00;50.30;;;10.29;52.54;102336.25;8295408;28;19996;-87
2022/04/15 17:33:28;;;;;;;;;;;11.90;51.50;;;10.32;52.25;102349.22;8303383;28;19939;-86
2022/04/15 17:37:49;;;;;;;;;;;11.80;50.60;;;10.28;52.34;102343.22;8284019;28;20015;-86
2022/04/15 17:42:11;;;;;;;;;;;11.80;50.80;;;10.28;51.91;102342.38;8290741;28;20012;-89
2022/04/15 17:46:33;;;;;;;;;;;11.80;50.90;;;10.08;52.04;102322.88;8299730;28;19929;-87
2022/04/15 17:50:55;;;;;;;;;;;11.80;50.60;;;10.26;52.35;102363.28;8286024;28;20801;-88
2022/04/15 17:55:17;;;;;;;;;;;11.90;51.60;;;10.22;52.53;102371.22;8288633;28;20004;-87
2022/04/15 17:59:38;;;;;;;;;;;11.80;51.10;;;10.05;52.15;102351.66;8311745;28;19921;-87
2022/04/15 18:04:02;;;;;;;;;;;11.80;51.40;;;10.23;52.32;102393.81;8300330;28;19924;-87
2022/04/15 18:08:24;;;;;;;;;;;11.70;51.10;;;10.01;52.40;102372.66;8299829;28;20330;-86
2022/04/15 18:12:56;;;;;;;;;;;11.80;50.80;;;9.92;52.56;102371.16;8306985;28;20368;-87
2022/04/15 18:17:18;;;;;;;;;;;11.90;50.30;;;10.11;52.47;102424.59;8312557;28;20053;-87
2022/04/15 18:21:40;;;;;;;;;;;11.50;50.20;;;10.07;52.20;102433.41;8302969;28;19947;-86
2022/04/15 18:26:03;;;;;;;;;;;11.60;51.30;;;9.89;52.46;102416.44;8308500;28;20008;-89
2022/04/15 18:30:25;;;;;;;;;;;11.70;51.20;;;9.96;52.30;102435.41;8278823;28;20007;-86
2022/04/15 18:34:49;;;;;;;;;;;11.60;50.60;;;9.99;52.33;102445.78;8308178;28;20353;-87
2022/04/15 18:39:11;;;;;;;;;;;11.60;50.40;;;10.02;51.95;102453.53;8305817;28;20374;-87
2022/04/15 18:43:35;;;;;;;;;;;11.60;50.70;;;9.99;52.38;102451.00;8293238;28;19917;-88
2022/04/15 18:52:34;;;;;;;;;;;11.60;50.60;;;9.99;52.15;102466.66;8311162;28;20008;-88
2022/04/15 18:52:42;;;;;;;;;;;11.60;50.50;;;9.68;52.35;102433.47;8310484;28;20012;-89
2022/04/15 18:57:05;;;;;;;;;;;11.60;49.60;;;9.77;52.95;102462.84;8274011;28;20016;-89
2022/04/15 19:01:26;;;;;;;;;;;11.60;50.30;;;9.84;52.27;102474.84;8313295;28;19921;-88
2022/04/15 19:05:49;;;;;;;;;;;11.50;49.70;;;9.78;52.51;102469.78;8306288;28;20004;-88
2022/04/15 19:10:11;;;;;;;;;;;11.50;49.60;;;9.73;52.74;102468.13;8303686;28;20006;-88
2022/04/15 19:14:35;;;;;;;;;;;11.40;49.80;;;9.67;52.01;102465.69;8292979;28;20000;-87
2022/04/15 19:18:57;;;;;;;;;;;11.50;50.20;;;9.82;52.35;102502.72;8303755;28;19928;-87
2022/04/15 19:23:19;;;;;;;;;;;11.40;49.40;;;9.71;52.61;102489.94;8295777;28;20225;-87
2022/04/15 19:27:41;;;;;;;;;;;11.40;50.90;;;9.65;52.46;102492.69;8297412;28;20357;-87
2022/04/15 19:32:03;;;;;;;;;;;11.40;50.20;;;9.54;52.79;102498.16;8298884;28;20016;-88
2022/04/15 19:36:25;;;;;;;;;;;11.30;50.80;;;9.51;52.49;102509.50;8276846;28;19921;-87
2022/04/15 19:40:49;;;;;;;;;;;11.20;50.80;;;9.56;52.41;102530.28;8271660;28;20008;-87
2022/04/15 19:45:10;;;;;;;;;;;11.20;49.90;;;9.60;53.03;102537.13;8305423;28;20446;-87
2022/04/15 19:49:32;;;;;;;;;;;11.20;49.70;;;9.58;52.68;102519.78;8310093;28;19980;-88
2022/04/15 19:53:54;;;;;;;;;;;11.20;49.90;;;9.61;52.35;102538.84;8298106;28;20324;-88
2022/04/15 20:02:59;;;;;;;;;;;11.20;50.00;;;9.47;52.53;102520.88;8312166;28;20012;-87
2022/04/15 20:07:21;;;;;;;;;;;11.20;49.70;;;9.46;52.50;102531.38;8296063;28;20412;-86
2022/04/15 20:11:45;;;;;;;;;;;10.90;49.80;;;9.38;52.56;102535.88;8303730;28;20465;-88
2022/04/15 20:16:07;;;;;;;;;;;11.10;49.60;;;9.46;52.35;102562.66;8317310;28;20012;-88